Granada, Spain
Current Conditions -  °F | °C
As of 2:00 PM on Wednesday 22 Oct 2014 (Local Time) from LEGR Reporting Station
Clear Clear  
Wind Chill: 81°   Ceiling: Unl
Heat Index: 81°   Visibility: 6mi
Dew Point: 48°   Wind: 0mph
Humidity: 32%   Direction: NA
Pressure: 30.27"   Gusts: NA
Location:  37.18°N, 3.6°W
Report Text: LEGR 221200Z 00000KT CAVOK 27/09 Q1025
Loading
Personal Weather Stations






























Interactive Weather Map
Tropical Storm Tracking
New forecast layout! Learn more

10-Day Weather Forecast

Advertisements
Track Severe Weather on mobile